Time;durP1;ratioP1;P1;durP2;ratioP2;P2;SDS_P1;SDS_P2;PMS_P1;PMS_P2;Temp;Humidity;BMP_temperature;BMP_pressure;BME280_temperature;BME280_humidity;BME280_pressure;Samples;Min_cycle;Max_cycle;Signal;HPM_P1;HPM_P2
2022/04/03 00:00:41;;;;;;;7.37;4.90;;;;;;;;;;4990736;28;20644;-70
2022/04/03 00:03:08;;;;;;;8.23;5.22;;;;;;;;;;4976801;28;20928;-70
2022/04/03 00:05:38;;;;;;;8.68;4.85;;;;;;;;;;4974584;28;20460;-70
2022/04/03 00:08:04;;;;;;;8.43;4.70;;;;;;;;;;4962469;28;20436;-70
2022/04/03 00:10:30;;;;;;;7.25;4.43;;;;;;;;;;4986861;28;20432;-70
2022/04/03 00:12:56;;;;;;;7.68;4.43;;;;;;;;;;4975885;28;20423;-70
2022/04/03 00:15:23;;;;;;;8.07;4.70;;;;;;;;;;4987787;28;20448;-69
2022/04/03 00:17:49;;;;;;;7.73;4.53;;;;;;;;;;4997305;28;20440;-70
2022/04/03 00:20:16;;;;;;;7.88;4.55;;;;;;;;;;4975470;28;20848;-70
2022/04/03 00:22:47;;;;;;;8.38;5.40;;;;;;;;;;4993075;28;20440;-70
2022/04/03 00:25:14;;;;;;;7.13;3.95;;;;;;;;;;4964319;28;20438;-70
2022/04/03 00:27:40;;;;;;;8.53;4.60;;;;;;;;;;4970616;28;20425;-70
2022/04/03 00:30:09;;;;;;;7.25;4.20;;;;;;;;;;4974599;28;20422;-70
2022/04/03 00:32:35;;;;;;;9.32;4.75;;;;;;;;;;4977720;28;20444;-70
2022/04/03 00:35:02;;;;;;;9.65;4.53;;;;;;;;;;4989338;28;20933;-70
2022/04/03 00:37:28;;;;;;;7.80;4.90;;;;;;;;;;4997400;28;20434;-70
2022/04/03 00:39:54;;;;;;;8.73;5.07;;;;;;;;;;4980311;28;20941;-69
2022/04/03 00:42:20;;;;;;;9.00;5.50;;;;;;;;;;4986126;28;20779;-69
2022/04/03 00:44:47;;;;;;;9.23;4.75;;;;;;;;;;4992495;28;20431;-70
2022/04/03 00:47:15;;;;;;;9.05;4.90;;;;;;;;;;4962625;28;20470;-70
2022/04/03 00:49:41;;;;;;;10.38;4.95;;;;;;;;;;5004408;28;20429;-70
2022/04/03 00:52:08;;;;;;;9.93;4.70;;;;;;;;;;4988959;28;20528;-71
2022/04/03 00:54:34;;;;;;;7.88;4.85;;;;;;;;;;4973070;28;20424;-69
2022/04/03 00:57:03;;;;;;;9.55;4.85;;;;;;;;;;4987726;28;20424;-70
2022/04/03 00:59:29;;;;;;;8.25;4.97;;;;;;;;;;4974588;28;20416;-70
2022/04/03 01:01:55;;;;;;;7.72;4.80;;;;;;;;;;5027377;28;20443;-70
2022/04/03 01:04:21;;;;;;;7.55;4.70;;;;;;;;;;4972869;28;20455;-69
2022/04/03 01:06:47;;;;;;;7.05;4.70;;;;;;;;;;4974918;28;20887;-69
2022/04/03 01:09:14;;;;;;;8.63;4.60;;;;;;;;;;4973391;28;20426;-70
2022/04/03 01:11:41;;;;;;;7.80;4.53;;;;;;;;;;4973156;28;20579;-69
2022/04/03 01:14:07;;;;;;;6.13;4.40;;;;;;;;;;4985409;28;20891;-70
2022/04/03 01:16:35;;;;;;;8.23;4.50;;;;;;;;;;4968943;28;20440;-69
2022/04/03 01:19:02;;;;;;;10.20;4.72;;;;;;;;;;4957461;28;20495;-69
2022/04/03 01:21:28;;;;;;;6.53;4.30;;;;;;;;;;4991441;28;20414;-69
2022/04/03 01:23:55;;;;;;;8.48;4.38;;;;;;;;;;4976955;28;20414;-69
2022/04/03 01:26:22;;;;;;;7.32;4.38;;;;;;;;;;4973045;28;20429;-69
2022/04/03 01:28:48;;;;;;;7.32;4.25;;;;;;;;;;4997816;28;20439;-69
2022/04/03 01:31:14;;;;;;;8.95;4.22;;;;;;;;;;4960991;28;20434;-70
2022/04/03 01:33:40;;;;;;;9.05;4.72;;;;;;;;;;4976313;28;20486;-69
2022/04/03 01:36:06;;;;;;;5.82;3.85;;;;;;;;;;4993652;28;20435;-69
2022/04/03 01:38:32;;;;;;;8.43;4.25;;;;;;;;;;4962142;28;20500;-69
2022/04/03 01:40:58;;;;;;;6.43;4.03;;;;;;;;;;4987323;28;20446;-69
2022/04/03 01:43:24;;;;;;;7.95;4.07;;;;;;;;;;4975637;28;20464;-69
2022/04/03 01:45:50;;;;;;;6.75;4.10;;;;;;;;;;4972496;28;20556;-69
2022/04/03 01:48:18;;;;;;;6.40;4.35;;;;;;;;;;4990811;28;20411;-69
2022/04/03 01:50:44;;;;;;;7.07;4.53;;;;;;;;;;5018133;28;20983;-69
2022/04/03 01:53:10;;;;;;;5.97;3.90;;;;;;;;;;5035060;28;20430;-68
2022/04/03 01:55:36;;;;;;;6.30;3.90;;;;;;;;;;4984934;28;20464;-69
2022/04/03 01:58:08;;;;;;;6.70;3.95;;;;;;;;;;5036300;28;20925;-69
2022/04/03 02:00:34;;;;;;;7.17;4.40;;;;;;;;;;4964546;28;20512;-68
2022/04/03 02:03:00;;;;;;;7.55;4.03;;;;;;;;;;4979632;28;20442;-69
2022/04/03 02:05:26;;;;;;;6.70;3.97;;;;;;;;;;4991111;28;20430;-69
2022/04/03 02:07:52;;;;;;;8.60;4.40;;;;;;;;;;5088793;28;20417;-69
2022/04/03 02:10:18;;;;;;;8.55;3.95;;;;;;;;;;4994919;28;20430;-68
2022/04/03 02:12:44;;;;;;;7.93;4.10;;;;;;;;;;4998104;28;20993;-69
2022/04/03 02:15:11;;;;;;;7.05;4.00;;;;;;;;;;4991369;28;20432;-70
2022/04/03 02:17:39;;;;;;;7.63;3.90;;;;;;;;;;4988434;28;20929;-70
2022/04/03 02:20:05;;;;;;;7.38;4.18;;;;;;;;;;4981701;28;20412;-69
2022/04/03 02:22:31;;;;;;;6.97;4.40;;;;;;;;;;4992805;28;20439;-69
2022/04/03 02:24:57;;;;;;;6.55;3.88;;;;;;;;;;5010813;28;20959;-69
2022/04/03 02:27:24;;;;;;;6.13;3.92;;;;;;;;;;4989463;28;20435;-69
2022/04/03 02:29:50;;;;;;;7.82;3.97;;;;;;;;;;4985445;28;20443;-69
2022/04/03 02:32:16;;;;;;;6.90;4.43;;;;;;;;;;4989888;28;20560;-69
2022/04/03 02:34:42;;;;;;;6.38;4.10;;;;;;;;;;4975068;28;20868;-70
2022/04/03 02:37:08;;;;;;;6.30;4.20;;;;;;;;;;4974200;28;20431;-70
2022/04/03 02:39:34;;;;;;;6.95;4.53;;;;;;;;;;5008730;28;20439;-69
2022/04/03 02:42:01;;;;;;;6.70;4.03;;;;;;;;;;4997229;28;20437;-69
2022/04/03 02:44:27;;;;;;;7.72;4.20;;;;;;;;;;5014868;28;20405;-69
2022/04/03 02:46:53;;;;;;;6.95;4.10;;;;;;;;;;4992045;28;20450;-69
2022/04/03 02:49:19;;;;;;;7.68;3.80;;;;;;;;;;4962761;28;20421;-69
2022/04/03 02:51:45;;;;;;;7.57;4.25;;;;;;;;;;4995367;28;20480;-69
2022/04/03 02:54:12;;;;;;;6.88;4.43;;;;;;;;;;4986876;28;20428;-68
2022/04/03 02:56:38;;;;;;;6.97;4.10;;;;;;;;;;4968391;28;20436;-69
2022/04/03 02:59:04;;;;;;;7.88;4.10;;;;;;;;;;5025152;28;20492;-69
2022/04/03 03:01:30;;;;;;;7.80;4.50;;;;;;;;;;4979653;28;20458;-69
2022/04/03 03:03:56;;;;;;;7.22;4.32;;;;;;;;;;5006040;28;21476;-68
2022/04/03 03:06:23;;;;;;;7.60;4.10;;;;;;;;;;4979351;28;20959;-69
2022/04/03 03:08:49;;;;;;;7.57;4.90;;;;;;;;;;4987844;28;20437;-68
2022/04/03 03:11:16;;;;;;;6.35;3.97;;;;;;;;;;4978239;28;20523;-69
2022/04/03 03:13:42;;;;;;;6.97;4.43;;;;;;;;;;4959311;28;20444;-69
2022/04/03 03:16:08;;;;;;;7.22;4.32;;;;;;;;;;4993497;28;20487;-68
2022/04/03 03:18:34;;;;;;;5.55;4.00;;;;;;;;;;4956581;28;20429;-69
2022/04/03 03:21:00;;;;;;;6.57;4.40;;;;;;;;;;4960594;28;20444;-69
2022/04/03 03:23:27;;;;;;;7.72;4.80;;;;;;;;;;5005209;28;20421;-70
2022/04/03 03:25:53;;;;;;;7.95;4.40;;;;;;;;;;5002512;28;20840;-70
2022/04/03 03:28:19;;;;;;;6.20;4.43;;;;;;;;;;4989472;28;20458;-70
2022/04/03 03:30:45;;;;;;;7.05;4.22;;;;;;;;;;5014147;28;20413;-70
2022/04/03 03:33:11;;;;;;;7.45;4.35;;;;;;;;;;4986070;28;20435;-70
2022/04/03 03:35:37;;;;;;;6.28;4.70;;;;;;;;;;4976540;28;20433;-70
2022/04/03 03:38:03;;;;;;;6.30;4.55;;;;;;;;;;4973039;28;20517;-70
2022/04/03 03:40:29;;;;;;;9.48;4.35;;;;;;;;;;4978135;28;20434;-70
2022/04/03 03:42:56;;;;;;;6.93;4.43;;;;;;;;;;4996489;28;20413;-70
2022/04/03 03:45:22;;;;;;;6.07;4.00;;;;;;;;;;5002478;28;20633;-70
2022/04/03 03:47:48;;;;;;;6.75;4.43;;;;;;;;;;4975148;28;20461;-69
2022/04/03 03:50:15;;;;;;;6.70;4.35;;;;;;;;;;4977782;28;20437;-69
2022/04/03 03:52:44;;;;;;;7.70;4.35;;;;;;;;;;4995113;28;20456;-69
2022/04/03 03:55:10;;;;;;;6.90;4.03;;;;;;;;;;4985696;28;20436;-69
2022/04/03 03:57:38;;;;;;;5.78;4.03;;;;;;;;;;4978814;28;20443;-70
2022/04/03 04:00:05;;;;;;;6.72;3.95;;;;;;;;;;4974424;28;20487;-69
2022/04/03 04:02:31;;;;;;;6.13;4.30;;;;;;;;;;4974139;28;20478;-69
2022/04/03 04:04:57;;;;;;;10.70;6.80;;;;;;;;;;4974740;28;20591;-69
2022/04/03 04:07:23;;;;;;;6.93;4.47;;;;;;;;;;4974692;28;20559;-69
2022/04/03 04:09:49;;;;;;;9.40;4.85;;;;;;;;;;4961091;28;20431;-69
2022/04/03 04:12:16;;;;;;;9.82;5.30;;;;;;;;;;4992908;28;20463;-69
2022/04/03 04:14:42;;;;;;;6.93;5.10;;;;;;;;;;4985428;28;20435;-69
2022/04/03 04:17:11;;;;;;;7.45;5.20;;;;;;;;;;4974039;28;20417;-69
2022/04/03 04:19:37;;;;;;;8.10;5.00;;;;;;;;;;4975674;28;20439;-69
2022/04/03 04:22:03;;;;;;;7.90;5.18;;;;;;;;;;5010155;28;20453;-69
2022/04/03 04:24:30;;;;;;;9.43;5.10;;;;;;;;;;5009840;28;20409;-70
2022/04/03 04:26:56;;;;;;;7.63;5.10;;;;;;;;;;4977441;28;20876;-70
2022/04/03 04:29:22;;;;;;;6.90;4.88;;;;;;;;;;4973929;28;20447;-69
2022/04/03 04:31:48;;;;;;;7.65;4.85;;;;;;;;;;4973245;28;20429;-70
2022/04/03 04:34:16;;;;;;;8.88;6.13;;;;;;;;;;4981259;28;20460;-70
2022/04/03 04:36:42;;;;;;;9.35;5.70;;;;;;;;;;4975875;28;20437;-70
2022/04/03 04:39:08;;;;;;;8.52;4.90;;;;;;;;;;4986561;28;20494;-70
2022/04/03 04:41:34;;;;;;;6.70;4.85;;;;;;;;;;4981907;28;20946;-70
2022/04/03 04:44:00;;;;;;;9.57;4.70;;;;;;;;;;4961061;28;20501;-69
2022/04/03 04:46:26;;;;;;;7.35;5.20;;;;;;;;;;4966689;28;20430;-69
2022/04/03 04:48:52;;;;;;;8.52;5.65;;;;;;;;;;4993222;28;20439;-70
2022/04/03 04:51:18;;;;;;;10.55;5.25;;;;;;;;;;4975791;28;20432;-70
2022/04/03 04:53:45;;;;;;;7.00;5.07;;;;;;;;;;4993569;28;20434;-69
2022/04/03 04:56:12;;;;;;;8.68;5.22;;;;;;;;;;4984289;28;20470;-70
2022/04/03 04:58:38;;;;;;;8.30;5.40;;;;;;;;;;4990273;28;20483;-70
2022/04/03 05:01:04;;;;;;;7.82;5.15;;;;;;;;;;4987000;28;20442;-70
2022/04/03 05:03:30;;;;;;;6.67;5.17;;;;;;;;;;4979288;28;20633;-70
2022/04/03 05:05:57;;;;;;;7.80;4.78;;;;;;;;;;4989423;28;20485;-69
2022/04/03 05:08:23;;;;;;;9.48;5.25;;;;;;;;;;4972681;28;20439;-69
2022/04/03 05:10:50;;;;;;;9.25;5.43;;;;;;;;;;4973906;28;20427;-69
2022/04/03 05:13:16;;;;;;;9.07;5.28;;;;;;;;;;4992602;28;20436;-70
2022/04/03 05:15:42;;;;;;;14.45;8.48;;;;;;;;;;4973965;28;20951;-69
2022/04/03 05:18:08;;;;;;;21.30;9.27;;;;;;;;;;4977471;28;20550;-69
2022/04/03 05:20:34;;;;;;;9.65;5.65;;;;;;;;;;4977397;28;20438;-69
2022/04/03 05:23:00;;;;;;;11.50;6.40;;;;;;;;;;4961101;28;20478;-69
2022/04/03 05:25:27;;;;;;;8.75;5.75;;;;;;;;;;4984031;28;20443;-70
2022/04/03 05:27:53;;;;;;;10.18;5.95;;;;;;;;;;4983910;28;20430;-68
2022/04/03 05:30:19;;;;;;;14.07;9.07;;;;;;;;;;4991351;28;20973;-69
2022/04/03 05:32:45;;;;;;;13.05;8.23;;;;;;;;;;4993104;28;20502;-70
2022/04/03 05:35:13;;;;;;;13.80;8.47;;;;;;;;;;4964701;28;20426;-69
2022/04/03 05:37:39;;;;;;;8.43;4.78;;;;;;;;;;4965254;28;20424;-69
2022/04/03 05:40:05;;;;;;;6.65;4.30;;;;;;;;;;5042043;28;20463;-69
2022/04/03 05:42:35;;;;;;;6.97;4.05;;;;;;;;;;4997269;28;20923;-69
2022/04/03 05:45:01;;;;;;;6.45;4.22;;;;;;;;;;4972819;28;20417;-69
2022/04/03 05:47:27;;;;;;;7.40;3.78;;;;;;;;;;4986797;28;20441;-69
2022/04/03 05:49:53;;;;;;;6.60;3.65;;;;;;;;;;4979359;28;20830;-69
2022/04/03 05:52:20;;;;;;;5.15;3.50;;;;;;;;;;4990607;28;20439;-70
2022/04/03 05:54:46;;;;;;;6.57;3.97;;;;;;;;;;4973572;28;20803;-70
2022/04/03 05:57:14;;;;;;;6.72;3.55;;;;;;;;;;4957566;28;20443;-70
2022/04/03 05:59:40;;;;;;;6.53;3.60;;;;;;;;;;4957990;28;20436;-68
2022/04/03 06:02:06;;;;;;;7.05;3.60;;;;;;;;;;4994297;28;20428;-69
2022/04/03 06:04:33;;;;;;;5.28;3.22;;;;;;;;;;4994848;28;20454;-69
2022/04/03 06:06:59;;;;;;;5.57;2.92;;;;;;;;;;4984793;28;20437;-69
2022/04/03 06:09:25;;;;;;;4.65;2.88;;;;;;;;;;4954030;28;20446;-69
2022/04/03 06:11:52;;;;;;;6.00;2.85;;;;;;;;;;4977095;28;20749;-70
2022/04/03 06:14:18;;;;;;;7.10;2.67;;;;;;;;;;4976847;28;20442;-69
2022/04/03 06:16:44;;;;;;;6.65;3.03;;;;;;;;;;4991294;28;20458;-69
2022/04/03 06:19:12;;;;;;;7.33;3.10;;;;;;;;;;4979628;28;20409;-69
2022/04/03 06:21:38;;;;;;;5.72;3.05;;;;;;;;;;4986629;28;20433;-69
2022/04/03 06:24:04;;;;;;;6.35;2.90;;;;;;;;;;4990458;28;20411;-70
2022/04/03 06:26:30;;;;;;;5.67;3.60;;;;;;;;;;4979746;28;20494;-69
2022/04/03 06:28:57;;;;;;;6.80;3.10;;;;;;;;;;4972668;28;20439;-69
2022/04/03 06:31:23;;;;;;;6.63;3.07;;;;;;;;;;4974215;28;20424;-70
2022/04/03 06:33:49;;;;;;;6.40;3.15;;;;;;;;;;4979486;28;20464;-69
2022/04/03 06:36:15;;;;;;;7.33;3.03;;;;;;;;;;4960636;28;20430;-70
2022/04/03 06:38:41;;;;;;;9.00;2.97;;;;;;;;;;4992410;28;20476;-69
2022/04/03 06:41:08;;;;;;;8.63;2.97;;;;;;;;;;4999624;28;20463;-70
2022/04/03 06:43:35;;;;;;;8.95;3.10;;;;;;;;;;4994025;28;20434;-70
2022/04/03 06:46:01;;;;;;;5.07;2.60;;;;;;;;;;4978680;28;20444;-70
2022/04/03 06:48:28;;;;;;;6.55;2.70;;;;;;;;;;4981204;28;20431;-69
2022/04/03 06:50:55;;;;;;;7.47;2.70;;;;;;;;;;4989373;28;20436;-71
2022/04/03 06:53:21;;;;;;;6.35;2.63;;;;;;;;;;4994764;28;20452;-70
2022/04/03 06:55:48;;;;;;;7.07;2.63;;;;;;;;;;4964143;28;21000;-71
2022/04/03 06:58:14;;;;;;;6.68;2.50;;;;;;;;;;5026890;28;20403;-71
2022/04/03 07:00:41;;;;;;;7.53;2.63;;;;;;;;;;4984807;28;20435;-71
2022/04/03 07:03:07;;;;;;;8.63;2.60;;;;;;;;;;4965343;28;20940;-68
2022/04/03 07:05:34;;;;;;;5.80;2.58;;;;;;;;;;5006215;28;20509;-69
2022/04/03 07:08:00;;;;;;;5.80;2.13;;;;;;;;;;5008876;28;20586;-69
2022/04/03 07:10:27;;;;;;;6.72;2.17;;;;;;;;;;4977695;28;20440;-80
2022/04/03 07:12:55;;;;;;;7.95;2.45;;;;;;;;;;4958304;28;20498;-70
2022/04/03 07:15:21;;;;;;;6.18;1.85;;;;;;;;;;4973082;28;21022;-69
2022/04/03 07:17:49;;;;;;;5.80;2.07;;;;;;;;;;4978943;28;20429;-70
2022/04/03 07:20:15;;;;;;;6.15;2.35;;;;;;;;;;4989049;28;20438;-70
2022/04/03 07:22:42;;;;;;;5.30;2.33;;;;;;;;;;4963153;28;20472;-69
2022/04/03 07:25:09;;;;;;;4.65;1.90;;;;;;;;;;4984644;28;20421;-69
2022/04/03 07:27:35;;;;;;;3.20;1.85;;;;;;;;;;4998025;28;20434;-69
2022/04/03 07:30:01;;;;;;;8.38;2.10;;;;;;;;;;4976285;28;20434;-69
2022/04/03 07:32:27;;;;;;;6.57;2.47;;;;;;;;;;4992139;28;20448;-69
2022/04/03 07:34:54;;;;;;;5.93;2.00;;;;;;;;;;4990087;28;20432;-69
2022/04/03 07:37:20;;;;;;;7.38;2.10;;;;;;;;;;4986256;28;20497;-69
2022/04/03 07:39:46;;;;;;;7.60;2.22;;;;;;;;;;4977897;28;20441;-69
2022/04/03 07:42:12;;;;;;;7.18;2.30;;;;;;;;;;4974561;28;20432;-69
2022/04/03 07:44:38;;;;;;;5.20;2.00;;;;;;;;;;4982589;28;20432;-70
2022/04/03 07:47:05;;;;;;;6.82;2.15;;;;;;;;;;4972563;28;20486;-70
2022/04/03 07:49:31;;;;;;;5.75;2.00;;;;;;;;;;4985053;28;20442;-70
2022/04/03 07:51:57;;;;;;;7.78;2.15;;;;;;;;;;4979245;28;20455;-69
2022/04/03 07:54:23;;;;;;;5.50;2.00;;;;;;;;;;5042951;28;20409;-70
2022/04/03 07:56:49;;;;;;;5.43;1.95;;;;;;;;;;4994580;28;20416;-70
2022/04/03 07:59:16;;;;;;;5.82;2.10;;;;;;;;;;4971262;28;20527;-69
2022/04/03 08:01:42;;;;;;;6.07;2.00;;;;;;;;;;4993776;28;20410;-70
2022/04/03 08:04:09;;;;;;;4.43;2.08;;;;;;;;;;4988393;28;20433;-69
2022/04/03 08:06:35;;;;;;;6.53;1.92;;;;;;;;;;4964816;28;20428;-69
2022/04/03 08:09:01;;;;;;;5.38;1.73;;;6.30;99.90;;;;;;4973610;28;20444;-69
2022/04/03 08:11:27;;;;;;;4.68;1.80;;;;;;;;;;4973830;28;20444;-69
2022/04/03 08:13:53;;;;;;;6.25;1.80;;;;;;;;;;4976439;28;20436;-69
2022/04/03 08:16:19;;;;;;;5.22;1.55;;;;;;;;;;4993749;28;20498;-69
2022/04/03 08:18:45;;;;;;;7.20;2.42;;;;;;;;;;4964967;28;20428;-69
2022/04/03 08:21:11;;;;;;;6.25;1.80;;;;;;;;;;4983324;28;20473;-69
2022/04/03 08:23:38;;;;;;;5.05;1.70;;;;;;;;;;4991600;28;20434;-69
2022/04/03 08:26:04;;;;;;;7.78;2.00;;;;;;;;;;4987220;28;20518;-73
2022/04/03 08:28:31;;;;;;;5.67;1.67;;;;;;;;;;4954355;28;20425;-70
2022/04/03 08:30:57;;;;;;;4.35;1.48;;;;;;;;;;4984238;28;20437;-70
2022/04/03 08:33:23;;;;;;;4.88;2.13;;;;;;;;;;4965927;28;20447;-70
2022/04/03 08:35:51;;;;;;;4.53;1.67;;;;;;;;;;4980002;28;20823;-69
2022/04/03 08:38:18;;;;;;;5.97;1.83;;;;;;;;;;5003335;28;20421;-70
2022/04/03 08:40:44;;;;;;;5.82;1.48;;;;;;;;;;5006717;28;20429;-70
2022/04/03 08:43:11;;;;;;;3.67;1.50;;;;;;;;;;4987465;28;20445;-70
2022/04/03 08:45:38;;;;;;;4.43;1.48;;;;;;;;;;4961006;28;20464;-70
2022/04/03 08:48:06;;;;;;;4.47;1.63;;;;;;;;;;4982652;28;20432;-69
2022/04/03 08:50:34;;;;;;;6.18;1.80;;;;;;;;;;4965849;28;20907;-70
2022/04/03 08:53:01;;;;;;;5.20;1.80;;;;;;;;;;4975051;28;20457;-70
2022/04/03 08:55:27;;;;;;;4.80;1.73;;;;;;;;;;4985905;28;20428;-70
2022/04/03 08:57:54;;;;;;;3.42;1.55;;;;;;;;;;5025940;28;21289;-69
2022/04/03 09:00:21;;;;;;;4.18;1.48;;;;;;;;;;4974579;28;20416;-69
2022/04/03 09:02:47;;;;;;;3.38;1.30;;;;;;;;;;4996390;28;20423;-71
2022/04/03 09:05:14;;;;;;;5.18;1.65;;;;;;;;;;4994701;28;21210;-71
2022/04/03 09:07:40;;;;;;;3.85;1.40;;;;;;;;;;4973434;28;20440;-69
2022/04/03 09:10:15;;;;;;;4.25;1.40;;;7.20;99.90;;;;;;4975829;28;20473;-69
2022/04/03 09:12:45;;;;;;;3.15;1.33;;;;;;;;;;4972649;28;20568;-69
2022/04/03 09:15:14;;;;;;;3.30;1.37;;;;;;;;;;4976268;28;20518;-70
2022/04/03 09:18:00;;;;;;;4.05;1.42;;;;;;;;;;4972180;28;20582;-69
2022/04/03 09:20:28;;;;;;;3.72;1.40;;;;;;;;;;4990620;28;20475;-69
2022/04/03 09:22:58;;;;;;;5.00;1.42;;;;;;;;;;4990845;28;20431;-70
2022/04/03 09:25:29;;;;;;;4.70;1.30;;;;;;;;;;4979163;28;20448;-69
2022/04/03 09:27:56;;;;;;;4.03;1.70;;;;;;;;;;4974131;28;20479;-69
2022/04/03 09:30:33;;;;;;;4.15;1.58;;;;;;;;;;4988412;28;20461;-69
2022/04/03 09:32:59;;;;;;;4.55;1.55;;;;;;;;;;4983440;28;20436;-68
2022/04/03 09:35:27;;;;;;;3.72;1.30;;;;;;;;;;4998067;28;20429;-70
2022/04/03 09:38:08;;;;;;;2.60;1.20;;;;;;;;;;4964965;28;20481;-70
2022/04/03 09:40:36;;;;;;;2.92;1.17;;;;;;;;;;4959526;28;20519;-70
2022/04/03 09:43:14;;;;;;;3.72;1.25;;;;;;;;;;4968334;28;20432;-70
2022/04/03 09:45:45;;;;;;;5.85;1.52;;;;;;;;;;5007260;28;20452;-70
2022/04/03 09:48:19;;;;;;;4.05;1.42;;;;;;;;;;4991156;28;20443;-70
2022/04/03 09:50:58;;;;;;;4.47;1.30;;;;;;;;;;4976450;28;20442;-70
2022/04/03 09:53:24;;;;;;;3.50;1.30;;;;;;;;;;4979706;28;20506;-70
2022/04/03 09:55:50;;;;;;;2.08;1.10;;;;;;;;;;4983411;28;20547;-70
2022/04/03 09:58:16;;;;;;;3.10;1.13;;;;;;;;;;4988263;28;20790;-70
2022/04/03 10:00:43;;;;;;;3.58;1.20;;;;;;;;;;4978534;28;20468;-70
2022/04/03 10:03:13;;;;;;;3.58;1.27;;;;;;;;;;4971308;28;20437;-70
2022/04/03 10:05:39;;;;;;;4.00;1.60;;;;;;;;;;5007118;28;20471;-70
2022/04/03 10:08:06;;;;;;;2.92;1.23;;;;;;;;;;4967740;28;20519;-70
2022/04/03 10:10:36;;;;;;;3.30;1.23;;;;;;;;;;5007127;28;20425;-72
2022/04/03 10:13:03;;;;;;;4.10;1.50;;;;;;;;;;5007114;28;20519;-71
2022/04/03 10:15:29;;;;;;;3.63;1.30;;;;;;;;;;4988337;28;20463;-71
2022/04/03 10:17:56;;;;;;;4.32;1.20;;;;;;;;;;4981008;28;20438;-71
2022/04/03 10:20:24;;;;;;;3.53;1.08;;;;;;;;;;4990695;28;20503;-70
2022/04/03 10:22:54;;;;;;;4.13;1.35;;;;;;;;;;4992241;28;20431;-71
2022/04/03 10:25:27;;;;;;;4.47;1.42;;;;;;;;;;5005885;28;20409;-71
2022/04/03 10:27:56;;;;;;;3.60;1.40;;;;;;;;;;4990412;28;20435;-71
2022/04/03 10:30:33;;;;;;;2.55;1.30;;;;;;;;;;4992012;28;20447;-72
2022/04/03 10:32:59;;;;;;;3.38;1.30;;;7.50;99.90;;;;;;4973914;28;20474;-70
2022/04/03 10:35:25;;;;;;;5.00;1.45;;;;;;;;;;4962607;28;20441;-71
2022/04/03 10:38:02;;;;;;;3.13;1.25;;;;;;;;;;4979341;28;20468;-71
2022/04/03 10:40:30;;;;;;;4.50;1.35;;;;;;;;;;4961303;28;20427;-71
2022/04/03 10:43:02;;;;;;;2.35;1.20;;;;;;;;;;4992354;28;20493;-71
2022/04/03 10:45:34;;;;;;;4.40;1.40;;;;;;;;;;4979159;28;20421;-71
2022/04/03 10:48:19;;;;;;;5.43;1.67;;;;;;;;;;4979058;28;20420;-71
2022/04/03 10:51:06;;;;;;;4.97;1.50;;;;;;;;;;4967226;28;20739;-70
2022/04/03 10:53:36;;;;;;;4.70;1.45;;;;;;;;;;4991027;28;20420;-70
2022/04/03 10:56:07;;;;;;;3.05;1.15;;;;;;;;;;4989196;28;20954;-70
2022/04/03 10:58:41;;;;;;;3.90;1.10;;;;;;;;;;5068420;28;20413;-70
2022/04/03 11:01:09;;;;;;;1.52;0.90;;;;;;;;;;5066023;28;20490;-69
2022/04/03 11:03:36;;;;;;;1.55;0.80;;;;;;;;;;4961014;28;20424;-70
2022/04/03 11:06:21;;;;;;;0.93;0.80;;;;;;;;;;4989397;28;20519;-70
2022/04/03 11:08:55;;;;;;;1.55;0.90;;;;;;;;;;5003126;28;20498;-70
2022/04/03 11:12:00;;;;;;;2.08;0.88;;;6.40;99.90;;;;;;5005898;28;20430;-71
2022/04/03 11:14:44;;;;;;;1.77;1.00;;;;;;;;;;4986862;28;20432;-70
2022/04/03 11:17:11;;;;;;;1.85;0.90;;;;;;;;;;4978960;28;20448;-70
2022/04/03 11:19:45;;;;;;;2.50;1.17;;;;;;;;;;4959338;28;20940;-70
2022/04/03 11:22:14;;;;;;;2.10;1.08;;;;;;;;;;4980270;28;20508;-69
2022/04/03 11:24:40;;;;;;;1.85;1.00;;;;;;;;;;4988457;28;20518;-70
2022/04/03 11:27:07;;;;;;;1.85;1.00;;;;;;;;;;4971523;28;20456;-69
2022/04/03 11:29:33;;;;;;;2.30;1.20;;;;;;;;;;4980413;28;20448;-70
2022/04/03 11:32:02;;;;;;;4.82;1.80;;;;;;;;;;4983263;28;20439;-69
2022/04/03 11:34:29;;;;;;;4.93;2.25;;;;;;;;;;4990954;28;21013;-70
2022/04/03 11:36:59;;;;;;;3.30;1.38;;;;;;;;;;4988051;28;20538;-70
2022/04/03 11:39:35;;;;;;;2.10;1.25;;;;;;;;;;4980953;28;20444;-70
2022/04/03 11:42:03;;;;;;;2.37;1.10;;;;;;;;;;4978188;28;20436;-70
2022/04/03 11:44:29;;;;;;;2.45;1.10;;;6.80;99.90;;;;;;4968170;28;20960;-70
2022/04/03 11:46:55;;;;;;;1.85;1.00;;;;;;;;;;4976374;28;20435;-71
2022/04/03 11:49:28;;;;;;;2.47;1.10;;;6.60;99.90;;;;;;4962728;28;20451;-69
2022/04/03 11:52:06;;;;;;;2.55;0.90;;;;;;;;;;4967076;28;20432;-70
2022/04/03 11:54:32;;;;;;;1.85;0.80;;;;;;;;;;4977622;28;20475;-70
2022/04/03 11:57:00;;;;;;;6.25;2.97;;;;;;;;;;5000261;28;20479;-70
2022/04/03 11:59:26;;;;;;;31.30;17.50;;;;;;;;;;4983784;28;20453;-70
2022/04/03 12:01:52;;;;;;;8.02;4.38;;;;;;;;;;4975879;28;20416;-70
2022/04/03 12:04:19;;;;;;;2.60;1.03;;;;;;;;;;4980953;28;20640;-70
2022/04/03 12:06:49;;;;;;;3.35;1.00;;;;;;;;;;4982983;28;20443;-70
2022/04/03 12:09:18;;;;;;;2.37;0.90;;;8.50;99.90;;;;;;4997248;28;20486;-70
2022/04/03 12:11:48;;;;;;;2.42;0.93;;;;;;;;;;4974066;28;20454;-70
2022/04/03 12:14:34;;;;;;;1.95;0.90;;;;;;;;;;4983120;28;20956;-70
2022/04/03 12:17:00;;;;;;;2.83;1.08;;;;;;;;;;4998232;28;20456;-70
2022/04/03 12:19:27;;;;;;;5.38;1.40;;;;;;;;;;4999298;28;20438;-70
2022/04/03 12:21:59;;;;;;;5.50;1.23;;;;;;;;;;4974000;28;20502;-70
2022/04/03 12:24:26;;;;;;;20.63;13.70;;;;;;;;;;4978593;28;20471;-71
2022/04/03 12:26:54;;;;;;;5.30;2.03;;;;;;;;;;4982884;28;20544;-70
2022/04/03 12:29:21;;;;;;;3.67;1.25;;;;;;;;;;4983448;28;20439;-70
2022/04/03 12:31:56;;;;;;;4.43;1.23;;;;;;;;;;4993448;28;20428;-69
2022/04/03 12:34:23;;;;;;;2.47;1.03;;;;;;;;;;4973821;28;20436;-71
2022/04/03 12:36:50;;;;;;;4.17;1.30;;;;;;;;;;4988263;28;20499;-71
2022/04/03 12:39:29;;;;;;;8.65;3.88;;;;;;;;;;4988283;28;20512;-71
2022/04/03 12:41:57;;;;;;;4.47;1.67;;;;;;;;;;4980597;28;20871;-70
2022/04/03 12:44:23;;;;;;;9.85;4.65;;;;;;;;;;4993334;28;20526;-70
2022/04/03 12:46:49;;;;;;;5.95;2.10;;;;;;;;;;4982973;28;20436;-70
2022/04/03 12:49:19;;;;;;;7.47;4.03;;;;;;;;;;4975058;28;20567;-69
2022/04/03 12:51:49;;;;;;;4.53;1.50;;;;;;;;;;4982614;28;20826;-70
2022/04/03 12:54:15;;;;;;;4.43;2.47;;;;;;;;;;4991802;28;20443;-70
2022/04/03 12:59:37;;;;;;;3.15;1.23;;;;;;;;;;4989484;28;20436;-69
2022/04/03 13:02:06;;;;;;;4.23;1.57;;;9.00;99.90;;;;;;4992721;28;20453;-70
2022/04/03 13:04:32;;;;;;;4.68;1.52;;;;;;;;;;4978851;28;20446;-69
2022/04/03 13:06:59;;;;;;;2.50;1.05;;;;;;;;;;4982003;28;20416;-70
2022/04/03 13:09:25;;;;;;;2.40;0.90;;;;;;;;;;4986961;28;20435;-70
2022/04/03 13:11:54;;;;;;;3.13;1.00;;;;;;;;;;4983888;28;20426;-70
2022/04/03 13:14:25;;;;;;;4.07;1.20;;;;;;;;;;4970099;28;20560;-70
2022/04/03 13:16:52;;;;;;;4.30;1.38;;;;;;;;;;4966406;28;20525;-71
2022/04/03 13:19:21;;;;;;;3.45;1.75;;;;;;;;;;4964767;28;20446;-71
2022/04/03 13:21:47;;;;;;;8.13;4.00;;;;;;;;;;4967518;28;20421;-70
2022/04/03 13:24:13;;;;;;;10.85;5.82;;;;;;;;;;4995360;28;20825;-71
2022/04/03 13:26:40;;;;;;;3.70;1.20;;;;;;;;;;4973899;28;20810;-71
2022/04/03 13:29:12;;;;;;;2.45;1.33;;;;;;;;;;4981559;28;20456;-70
2022/04/03 13:31:39;;;;;;;2.90;1.15;;;;;;;;;;4981799;28;20438;-70
2022/04/03 13:34:05;;;;;;;2.40;0.93;;;;;;;;;;4963600;28;20503;-71
2022/04/03 13:36:32;;;;;;;3.45;1.38;;;;;;;;;;4996406;28;20483;-71
2022/04/03 13:38:59;;;;;;;3.63;1.77;;;;;;;;;;4965589;28;20423;-71
2022/04/03 13:41:25;;;;;;;4.72;2.50;;;;;;;;;;4988777;28;20443;-70
2022/04/03 13:43:51;;;;;;;4.53;1.77;;;;;;;;;;4977038;28;20427;-71
2022/04/03 13:46:17;;;;;;;3.88;1.35;;;;;;;;;;4983003;28;20495;-71
2022/04/03 13:48:43;;;;;;;4.15;1.85;;;;;;;;;;4972750;28;20431;-71
2022/04/03 13:51:11;;;;;;;2.45;1.30;;;;;;;;;;4993951;28;20479;-70
2022/04/03 13:53:37;;;;;;;3.10;1.30;;;;;;;;;;4962923;28;20430;-71
2022/04/03 13:56:04;;;;;;;1.67;0.90;;;;;;;;;;4986537;28;20435;-70
2022/04/03 13:58:30;;;;;;;1.77;0.90;;;;;;;;;;4980977;28;20468;-70
2022/04/03 14:00:57;;;;;;;2.55;1.00;;;;;;;;;;4962956;28;20511;-70
2022/04/03 14:03:25;;;;;;;1.80;1.10;;;;;;;;;;4980424;28;20509;-71
2022/04/03 14:05:51;;;;;;;2.70;1.15;;;;;;;;;;4984471;28;20768;-71
2022/04/03 14:08:17;;;;;;;3.00;1.20;;;;;;;;;;4963229;28;20519;-71
2022/04/03 14:10:44;;;;;;;2.83;1.42;;;;;;;;;;4993405;28;20431;-70
2022/04/03 14:13:11;;;;;;;4.35;1.20;;;;;;;;;;4971709;28;20449;-69
2022/04/03 14:15:38;;;;;;;4.18;1.52;;;;;;;;;;4983842;28;20436;-68
2022/04/03 14:18:04;;;;;;;2.13;1.30;;;;;;;;;;4983001;28;20500;-68
2022/04/03 14:20:30;;;;;;;3.93;1.80;;;;;;;;;;4972672;28;20517;-70
2022/04/03 14:22:56;;;;;;;7.35;3.20;;;;;;;;;;4998790;28;20940;-70
2022/04/03 14:25:22;;;;;;;4.13;2.28;;;;;;;;;;4990395;28;20547;-71
2022/04/03 14:27:49;;;;;;;10.00;5.82;;;;;;;;;;4985014;28;20430;-70
2022/04/03 14:30:15;;;;;;;9.73;5.43;;;;;;;;;;4974686;28;20428;-70
2022/04/03 14:32:45;;;;;;;3.70;1.33;;;;;;;;;;4982081;28;20456;-69
2022/04/03 14:35:16;;;;;;;2.80;1.30;;;;;;;;;;4988953;28;20487;-70
2022/04/03 14:37:45;;;;;;;3.95;1.42;;;;;;;;;;4971023;28;20527;-69
2022/04/03 14:40:13;;;;;;;4.22;1.77;;;8.50;99.90;;;;;;4975132;28;20456;-71
2022/04/03 14:42:40;;;;;;;6.03;2.33;;;;;;;;;;4964583;28;20827;-70